sensor_id;sensor_type;location;lat;lon;timestamp;P1;durP1;ratioP1;P2;durP2;ratioP2
72319;SDS011;60269;52.502;16.732;2022-12-29T00:01:52;6.10;;;1.30;;
72319;SDS011;60269;52.502;16.732;2022-12-29T00:05:24;10.85;;;1.67;;
72319;SDS011;60269;52.502;16.732;2022-12-29T00:08:56;7.70;;;1.53;;
72319;SDS011;60269;52.502;16.732;2022-12-29T00:12:28;5.47;;;0.93;;
72319;SDS011;60269;52.502;16.732;2022-12-29T00:16:20;7.85;;;1.55;;
72319;SDS011;60269;52.502;16.732;2022-12-29T00:19:53;7.85;;;1.58;;
72319;SDS011;60269;52.502;16.732;2022-12-29T00:23:44;12.10;;;1.80;;
72319;SDS011;60269;52.502;16.732;2022-12-29T00:27:35;3.58;;;0.50;;
72319;SDS011;60269;52.502;16.732;2022-12-29T00:31:25;7.40;;;1.45;;
72319;SDS011;60269;52.502;16.732;2022-12-29T00:35:22;7.23;;;1.30;;
72319;SDS011;60269;52.502;16.732;2022-12-29T00:39:00;13.52;;;1.63;;
72319;SDS011;60269;52.502;16.732;2022-12-29T00:42:53;9.23;;;1.80;;
72319;SDS011;60269;52.502;16.732;2022-12-29T00:46:44;8.67;;;2.00;;
72319;SDS011;60269;52.502;16.732;2022-12-29T00:50:16;4.72;;;0.73;;
72319;SDS011;60269;52.502;16.732;2022-12-29T00:53:49;8.73;;;1.90;;
72319;SDS011;60269;52.502;16.732;2022-12-29T00:57:21;7.22;;;2.00;;
72319;SDS011;60269;52.502;16.732;2022-12-29T01:01:00;5.57;;;1.50;;
72319;SDS011;60269;52.502;16.732;2022-12-29T01:04:37;11.07;;;1.80;;
72319;SDS011;60269;52.502;16.732;2022-12-29T01:08:09;9.77;;;2.42;;
72319;SDS011;60269;52.502;16.732;2022-12-29T01:11:41;8.77;;;2.73;;
72319;SDS011;60269;52.502;16.732;2022-12-29T01:15:14;8.05;;;1.90;;
72319;SDS011;60269;52.502;16.732;2022-12-29T01:18:46;9.10;;;2.35;;
72319;SDS011;60269;52.502;16.732;2022-12-29T01:22:18;5.87;;;1.67;;
72319;SDS011;60269;52.502;16.732;2022-12-29T01:25:50;7.80;;;1.63;;
72319;SDS011;60269;52.502;16.732;2022-12-29T01:29:22;6.45;;;1.70;;
72319;SDS011;60269;52.502;16.732;2022-12-29T01:32:54;6.45;;;1.70;;
72319;SDS011;60269;52.502;16.732;2022-12-29T01:36:26;3.43;;;1.10;;
72319;SDS011;60269;52.502;16.732;2022-12-29T01:39:58;6.25;;;1.70;;
72319;SDS011;60269;52.502;16.732;2022-12-29T01:43:43;2.90;;;0.70;;
72319;SDS011;60269;52.502;16.732;2022-12-29T01:51:09;4.35;;;1.42;;
72319;SDS011;60269;52.502;16.732;2022-12-29T01:54:43;5.20;;;0.85;;
72319;SDS011;60269;52.502;16.732;2022-12-29T01:58:17;3.40;;;0.90;;
72319;SDS011;60269;52.502;16.732;2022-12-29T02:01:54;2.63;;;0.65;;
72319;SDS011;60269;52.502;16.732;2022-12-29T02:09:19;4.47;;;0.90;;
72319;SDS011;60269;52.502;16.732;2022-12-29T02:12:52;15.33;;;1.17;;
72319;SDS011;60269;52.502;16.732;2022-12-29T02:24:36;2.70;;;0.57;;
72319;SDS011;60269;52.502;16.732;2022-12-29T02:36:01;5.27;;;1.57;;
72319;SDS011;60269;52.502;16.732;2022-12-29T02:39:40;4.35;;;0.70;;
72319;SDS011;60269;52.502;16.732;2022-12-29T02:50:47;8.57;;;1.20;;
72319;SDS011;60269;52.502;16.732;2022-12-29T02:54:27;4.97;;;0.70;;
72319;SDS011;60269;52.502;16.732;2022-12-29T03:02:00;6.80;;;0.57;;
72319;SDS011;60269;52.502;16.732;2022-12-29T03:09:44;3.38;;;0.85;;
72319;SDS011;60269;52.502;16.732;2022-12-29T03:18:04;3.65;;;0.77;;
72319;SDS011;60269;52.502;16.732;2022-12-29T03:21:43;2.10;;;0.65;;
72319;SDS011;60269;52.502;16.732;2022-12-29T03:25:56;2.65;;;0.57;;
72319;SDS011;60269;52.502;16.732;2022-12-29T03:29:33;4.00;;;0.97;;
72319;SDS011;60269;52.502;16.732;2022-12-29T03:33:12;3.83;;;1.00;;
72319;SDS011;60269;52.502;16.732;2022-12-29T03:36:50;3.42;;;0.75;;
72319;SDS011;60269;52.502;16.732;2022-12-29T03:40:23;4.30;;;0.90;;
72319;SDS011;60269;52.502;16.732;2022-12-29T03:43:57;4.10;;;0.80;;
72319;SDS011;60269;52.502;16.732;2022-12-29T03:47:30;3.90;;;0.57;;
72319;SDS011;60269;52.502;16.732;2022-12-29T03:51:02;4.57;;;1.07;;
72319;SDS011;60269;52.502;16.732;2022-12-29T03:54:34;6.28;;;0.77;;
72319;SDS011;60269;52.502;16.732;2022-12-29T03:58:06;2.47;;;0.63;;
72319;SDS011;60269;52.502;16.732;2022-12-29T04:01:38;6.50;;;1.45;;
72319;SDS011;60269;52.502;16.732;2022-12-29T04:05:10;3.63;;;0.73;;
72319;SDS011;60269;52.502;16.732;2022-12-29T04:08:43;4.90;;;0.75;;
72319;SDS011;60269;52.502;16.732;2022-12-29T04:12:16;3.35;;;0.73;;
72319;SDS011;60269;52.502;16.732;2022-12-29T04:15:48;3.77;;;0.73;;
72319;SDS011;60269;52.502;16.732;2022-12-29T04:19:21;4.55;;;0.77;;
72319;SDS011;60269;52.502;16.732;2022-12-29T04:22:59;3.67;;;0.60;;
72319;SDS011;60269;52.502;16.732;2022-12-29T04:26:34;6.10;;;0.60;;
72319;SDS011;60269;52.502;16.732;2022-12-29T04:30:07;2.53;;;0.85;;
72319;SDS011;60269;52.502;16.732;2022-12-29T04:33:39;4.55;;;1.85;;
72319;SDS011;60269;52.502;16.732;2022-12-29T04:37:11;2.92;;;0.50;;
72319;SDS011;60269;52.502;16.732;2022-12-29T04:40:43;3.27;;;0.80;;
72319;SDS011;60269;52.502;16.732;2022-12-29T04:44:15;2.92;;;0.52;;
72319;SDS011;60269;52.502;16.732;2022-12-29T04:47:48;2.35;;;0.40;;
72319;SDS011;60269;52.502;16.732;2022-12-29T04:51:20;4.90;;;0.60;;
72319;SDS011;60269;52.502;16.732;2022-12-29T04:54:52;3.50;;;1.17;;
72319;SDS011;60269;52.502;16.732;2022-12-29T04:58:24;5.32;;;1.08;;
72319;SDS011;60269;52.502;16.732;2022-12-29T05:01:56;3.10;;;0.80;;
72319;SDS011;60269;52.502;16.732;2022-12-29T05:05:28;6.68;;;0.82;;
72319;SDS011;60269;52.502;16.732;2022-12-29T05:09:00;4.22;;;0.90;;
72319;SDS011;60269;52.502;16.732;2022-12-29T05:12:33;5.78;;;0.95;;
72319;SDS011;60269;52.502;16.732;2022-12-29T05:16:07;4.20;;;0.70;;
72319;SDS011;60269;52.502;16.732;2022-12-29T05:19:39;4.35;;;0.82;;
72319;SDS011;60269;52.502;16.732;2022-12-29T05:23:11;5.00;;;0.75;;
72319;SDS011;60269;52.502;16.732;2022-12-29T05:26:44;6.47;;;0.60;;
72319;SDS011;60269;52.502;16.732;2022-12-29T05:30:16;1.98;;;0.43;;
72319;SDS011;60269;52.502;16.732;2022-12-29T05:33:48;5.60;;;0.75;;
72319;SDS011;60269;52.502;16.732;2022-12-29T05:37:20;5.27;;;0.70;;
72319;SDS011;60269;52.502;16.732;2022-12-29T05:40:52;6.45;;;0.80;;
72319;SDS011;60269;52.502;16.732;2022-12-29T05:44:24;2.88;;;0.60;;
72319;SDS011;60269;52.502;16.732;2022-12-29T05:47:56;4.85;;;1.23;;
72319;SDS011;60269;52.502;16.732;2022-12-29T05:51:28;4.07;;;0.60;;
72319;SDS011;60269;52.502;16.732;2022-12-29T05:55:00;2.67;;;0.68;;
72319;SDS011;60269;52.502;16.732;2022-12-29T05:58:33;3.15;;;0.60;;
72319;SDS011;60269;52.502;16.732;2022-12-29T06:02:05;3.07;;;0.60;;
72319;SDS011;60269;52.502;16.732;2022-12-29T06:05:37;2.58;;;0.52;;
72319;SDS011;60269;52.502;16.732;2022-12-29T06:09:10;4.38;;;1.05;;
72319;SDS011;60269;52.502;16.732;2022-12-29T06:12:42;4.20;;;1.00;;
72319;SDS011;60269;52.502;16.732;2022-12-29T06:16:15;6.85;;;0.63;;
72319;SDS011;60269;52.502;16.732;2022-12-29T06:19:47;5.50;;;0.90;;
72319;SDS011;60269;52.502;16.732;2022-12-29T06:23:19;5.20;;;0.82;;
72319;SDS011;60269;52.502;16.732;2022-12-29T06:26:52;5.40;;;0.80;;
72319;SDS011;60269;52.502;16.732;2022-12-29T06:30:25;2.22;;;0.55;;
72319;SDS011;60269;52.502;16.732;2022-12-29T06:33:57;2.72;;;0.45;;
72319;SDS011;60269;52.502;16.732;2022-12-29T06:37:34;3.07;;;0.73;;
72319;SDS011;60269;52.502;16.732;2022-12-29T06:41:06;5.20;;;0.70;;
72319;SDS011;60269;52.502;16.732;2022-12-29T06:44:38;4.05;;;0.57;;
72319;SDS011;60269;52.502;16.732;2022-12-29T06:48:10;2.73;;;0.50;;
72319;SDS011;60269;52.502;16.732;2022-12-29T06:51:42;3.83;;;0.70;;
72319;SDS011;60269;52.502;16.732;2022-12-29T06:55:14;5.20;;;1.25;;
72319;SDS011;60269;52.502;16.732;2022-12-29T06:58:46;6.32;;;1.70;;
72319;SDS011;60269;52.502;16.732;2022-12-29T07:02:19;7.33;;;1.77;;
72319;SDS011;60269;52.502;16.732;2022-12-29T07:05:51;12.13;;;1.80;;
72319;SDS011;60269;52.502;16.732;2022-12-29T07:09:23;9.32;;;2.28;;
72319;SDS011;60269;52.502;16.732;2022-12-29T07:12:56;4.27;;;0.73;;
72319;SDS011;60269;52.502;16.732;2022-12-29T07:16:28;3.35;;;0.70;;
72319;SDS011;60269;52.502;16.732;2022-12-29T07:20:01;4.80;;;1.10;;
72319;SDS011;60269;52.502;16.732;2022-12-29T07:23:34;3.87;;;0.93;;
72319;SDS011;60269;52.502;16.732;2022-12-29T07:27:07;3.25;;;0.65;;
72319;SDS011;60269;52.502;16.732;2022-12-29T07:30:38;4.75;;;0.85;;
72319;SDS011;60269;52.502;16.732;2022-12-29T07:34:11;3.03;;;0.60;;
72319;SDS011;60269;52.502;16.732;2022-12-29T07:37:43;4.67;;;0.83;;
72319;SDS011;60269;52.502;16.732;2022-12-29T07:41:15;4.28;;;0.80;;
72319;SDS011;60269;52.502;16.732;2022-12-29T07:44:47;4.63;;;1.00;;
72319;SDS011;60269;52.502;16.732;2022-12-29T07:48:21;9.30;;;1.13;;
72319;SDS011;60269;52.502;16.732;2022-12-29T07:51:53;4.05;;;0.95;;
72319;SDS011;60269;52.502;16.732;2022-12-29T07:55:25;3.35;;;0.75;;
72319;SDS011;60269;52.502;16.732;2022-12-29T07:58:57;4.93;;;0.83;;
72319;SDS011;60269;52.502;16.732;2022-12-29T08:02:29;4.97;;;1.00;;
72319;SDS011;60269;52.502;16.732;2022-12-29T08:06:01;3.97;;;1.10;;
72319;SDS011;60269;52.502;16.732;2022-12-29T08:09:34;4.00;;;0.70;;
72319;SDS011;60269;52.502;16.732;2022-12-29T08:13:06;5.40;;;0.87;;
72319;SDS011;60269;52.502;16.732;2022-12-29T08:16:38;2.55;;;0.73;;
72319;SDS011;60269;52.502;16.732;2022-12-29T08:20:09;4.03;;;0.80;;
72319;SDS011;60269;52.502;16.732;2022-12-29T08:23:42;2.90;;;0.40;;
72319;SDS011;60269;52.502;16.732;2022-12-29T08:27:14;7.97;;;1.15;;
72319;SDS011;60269;52.502;16.732;2022-12-29T08:30:51;7.78;;;0.85;;
72319;SDS011;60269;52.502;16.732;2022-12-29T08:34:23;5.03;;;1.00;;
72319;SDS011;60269;52.502;16.732;2022-12-29T08:37:55;7.78;;;1.02;;
72319;SDS011;60269;52.502;16.732;2022-12-29T08:41:27;4.68;;;0.85;;
72319;SDS011;60269;52.502;16.732;2022-12-29T08:45:00;5.07;;;0.80;;
72319;SDS011;60269;52.502;16.732;2022-12-29T08:48:31;3.30;;;0.43;;
72319;SDS011;60269;52.502;16.732;2022-12-29T08:52:04;6.53;;;0.63;;
72319;SDS011;60269;52.502;16.732;2022-12-29T08:55:36;2.47;;;0.55;;
72319;SDS011;60269;52.502;16.732;2022-12-29T08:59:08;2.63;;;0.93;;
72319;SDS011;60269;52.502;16.732;2022-12-29T09:02:40;4.43;;;1.27;;
72319;SDS011;60269;52.502;16.732;2022-12-29T09:06:13;2.13;;;0.50;;
72319;SDS011;60269;52.502;16.732;2022-12-29T09:09:46;4.07;;;0.63;;
72319;SDS011;60269;52.502;16.732;2022-12-29T09:13:18;3.97;;;0.90;;
72319;SDS011;60269;52.502;16.732;2022-12-29T09:16:51;5.60;;;1.00;;
72319;SDS011;60269;52.502;16.732;2022-12-29T09:20:42;3.20;;;0.82;;
72319;SDS011;60269;52.502;16.732;2022-12-29T09:24:14;6.67;;;1.30;;
72319;SDS011;60269;52.502;16.732;2022-12-29T09:27:46;3.75;;;0.55;;
72319;SDS011;60269;52.502;16.732;2022-12-29T09:31:19;4.28;;;1.00;;
72319;SDS011;60269;52.502;16.732;2022-12-29T09:34:51;4.60;;;0.97;;
72319;SDS011;60269;52.502;16.732;2022-12-29T09:38:24;6.18;;;0.90;;
72319;SDS011;60269;52.502;16.732;2022-12-29T09:46:18;8.33;;;2.00;;
72319;SDS011;60269;52.502;16.732;2022-12-29T09:57:18;16.30;;;3.10;;
72319;SDS011;60269;52.502;16.732;2022-12-29T10:04:39;6.35;;;1.70;;
72319;SDS011;60269;52.502;16.732;2022-12-29T10:19:35;3.13;;;0.68;;
72319;SDS011;60269;52.502;16.732;2022-12-29T10:27:04;3.27;;;0.60;;
72319;SDS011;60269;52.502;16.732;2022-12-29T10:30:42;1.30;;;0.38;;
72319;SDS011;60269;52.502;16.732;2022-12-29T10:34:20;3.28;;;0.70;;
72319;SDS011;60269;52.502;16.732;2022-12-29T10:42:28;4.47;;;0.70;;
72319;SDS011;60269;52.502;16.732;2022-12-29T10:46:09;3.25;;;0.70;;
72319;SDS011;60269;52.502;16.732;2022-12-29T10:49:45;3.75;;;0.70;;
72319;SDS011;60269;52.502;16.732;2022-12-29T10:53:20;7.10;;;1.17;;
72319;SDS011;60269;52.502;16.732;2022-12-29T10:57:00;4.00;;;1.00;;
72319;SDS011;60269;52.502;16.732;2022-12-29T11:00:36;4.53;;;0.80;;
72319;SDS011;60269;52.502;16.732;2022-12-29T11:08:00;4.00;;;0.70;;
72319;SDS011;60269;52.502;16.732;2022-12-29T11:11:35;5.20;;;0.68;;
72319;SDS011;60269;52.502;16.732;2022-12-29T11:15:14;8.15;;;0.98;;
72319;SDS011;60269;52.502;16.732;2022-12-29T11:18:47;3.43;;;1.03;;
72319;SDS011;60269;52.502;16.732;2022-12-29T11:22:27;7.25;;;1.17;;
72319;SDS011;60269;52.502;16.732;2022-12-29T11:29:52;3.87;;;0.87;;
72319;SDS011;60269;52.502;16.732;2022-12-29T11:33:27;5.57;;;0.73;;
72319;SDS011;60269;52.502;16.732;2022-12-29T11:37:43;4.95;;;0.95;;
72319;SDS011;60269;52.502;16.732;2022-12-29T11:41:02;6.57;;;0.85;;
72319;SDS011;60269;52.502;16.732;2022-12-29T11:44:36;4.93;;;0.67;;
72319;SDS011;60269;52.502;16.732;2022-12-29T11:48:17;4.13;;;0.75;;
72319;SDS011;60269;52.502;16.732;2022-12-29T11:51:51;5.85;;;0.93;;
72319;SDS011;60269;52.502;16.732;2022-12-29T11:55:28;5.73;;;0.60;;
72319;SDS011;60269;52.502;16.732;2022-12-29T12:03:00;3.40;;;0.80;;
72319;SDS011;60269;52.502;16.732;2022-12-29T12:06:37;4.20;;;0.80;;
72319;SDS011;60269;52.502;16.732;2022-12-29T12:10:28;3.30;;;0.60;;
72319;SDS011;60269;52.502;16.732;2022-12-29T12:14:21;3.43;;;0.60;;
72319;SDS011;60269;52.502;16.732;2022-12-29T12:21:43;5.28;;;1.15;;
72319;SDS011;60269;52.502;16.732;2022-12-29T12:25:20;3.70;;;0.70;;
72319;SDS011;60269;52.502;16.732;2022-12-29T12:28:58;2.53;;;0.52;;
72319;SDS011;60269;52.502;16.732;2022-12-29T13:10:54;3.15;;;0.70;;
72319;SDS011;60269;52.502;16.732;2022-12-29T13:21:59;5.37;;;0.93;;
72319;SDS011;60269;52.502;16.732;2022-12-29T13:37:42;5.05;;;0.60;;
72319;SDS011;60269;52.502;16.732;2022-12-29T13:41:27;2.75;;;0.50;;
72319;SDS011;60269;52.502;16.732;2022-12-29T13:45:05;9.77;;;1.60;;
72319;SDS011;60269;52.502;16.732;2022-12-29T13:48:44;3.78;;;0.82;;
72319;SDS011;60269;52.502;16.732;2022-12-29T13:52:39;2.65;;;0.68;;
72319;SDS011;60269;52.502;16.732;2022-12-29T13:56:22;5.72;;;0.85;;
72319;SDS011;60269;52.502;16.732;2022-12-29T14:03:57;4.55;;;0.88;;
72319;SDS011;60269;52.502;16.732;2022-12-29T14:07:35;7.97;;;0.85;;
72319;SDS011;60269;52.502;16.732;2022-12-29T14:11:10;5.33;;;1.20;;
72319;SDS011;60269;52.502;16.732;2022-12-29T14:14:43;3.92;;;0.88;;
72319;SDS011;60269;52.502;16.732;2022-12-29T14:18:19;7.57;;;1.08;;
72319;SDS011;60269;52.502;16.732;2022-12-29T14:22:02;5.13;;;0.90;;
72319;SDS011;60269;52.502;16.732;2022-12-29T14:33:01;4.68;;;0.90;;
72319;SDS011;60269;52.502;16.732;2022-12-29T14:40:18;5.47;;;1.00;;
72319;SDS011;60269;52.502;16.732;2022-12-29T14:44:37;4.32;;;0.93;;
72319;SDS011;60269;52.502;16.732;2022-12-29T14:47:51;10.63;;;1.48;;
72319;SDS011;60269;52.502;16.732;2022-12-29T14:51:29;7.13;;;1.50;;
72319;SDS011;60269;52.502;16.732;2022-12-29T14:58:46;9.73;;;1.58;;
72319;SDS011;60269;52.502;16.732;2022-12-29T15:02:23;5.90;;;1.03;;
72319;SDS011;60269;52.502;16.732;2022-12-29T15:06:06;6.15;;;1.33;;
72319;SDS011;60269;52.502;16.732;2022-12-29T15:09:44;5.70;;;1.10;;
72319;SDS011;60269;52.502;16.732;2022-12-29T15:13:24;7.35;;;1.13;;
72319;SDS011;60269;52.502;16.732;2022-12-29T15:17:21;6.83;;;1.30;;
72319;SDS011;60269;52.502;16.732;2022-12-29T15:21:01;3.30;;;0.82;;
72319;SDS011;60269;52.502;16.732;2022-12-29T15:24:36;3.38;;;0.80;;
72319;SDS011;60269;52.502;16.732;2022-12-29T15:28:13;5.43;;;1.00;;
72319;SDS011;60269;52.502;16.732;2022-12-29T15:31:47;9.65;;;1.70;;
72319;SDS011;60269;52.502;16.732;2022-12-29T15:35:30;5.78;;;0.98;;
72319;SDS011;60269;52.502;16.732;2022-12-29T15:39:20;5.00;;;1.13;;
72319;SDS011;60269;52.502;16.732;2022-12-29T15:43:08;4.30;;;0.97;;
72319;SDS011;60269;52.502;16.732;2022-12-29T15:46:42;5.10;;;1.00;;
72319;SDS011;60269;52.502;16.732;2022-12-29T15:50:17;6.68;;;1.35;;
72319;SDS011;60269;52.502;16.732;2022-12-29T15:53:52;3.20;;;0.70;;
72319;SDS011;60269;52.502;16.732;2022-12-29T15:57:26;7.20;;;1.25;;
72319;SDS011;60269;52.502;16.732;2022-12-29T16:01:04;6.82;;;1.05;;
72319;SDS011;60269;52.502;16.732;2022-12-29T16:04:36;7.88;;;1.63;;
72319;SDS011;60269;52.502;16.732;2022-12-29T16:12:15;7.22;;;1.17;;
72319;SDS011;60269;52.502;16.732;2022-12-29T16:15:59;4.82;;;1.23;;
72319;SDS011;60269;52.502;16.732;2022-12-29T16:19:57;7.97;;;2.10;;
72319;SDS011;60269;52.502;16.732;2022-12-29T16:23:31;4.03;;;0.60;;
72319;SDS011;60269;52.502;16.732;2022-12-29T16:31:03;5.35;;;1.05;;
72319;SDS011;60269;52.502;16.732;2022-12-29T16:41:45;5.72;;;1.30;;
72319;SDS011;60269;52.502;16.732;2022-12-29T16:48:52;4.72;;;0.82;;
72319;SDS011;60269;52.502;16.732;2022-12-29T16:52:29;5.43;;;1.23;;
72319;SDS011;60269;52.502;16.732;2022-12-29T16:56:08;4.10;;;0.93;;
72319;SDS011;60269;52.502;16.732;2022-12-29T16:59:46;4.40;;;0.90;;
72319;SDS011;60269;52.502;16.732;2022-12-29T17:03:23;4.53;;;0.85;;
72319;SDS011;60269;52.502;16.732;2022-12-29T17:07:02;7.00;;;1.08;;
72319;SDS011;60269;52.502;16.732;2022-12-29T17:10:34;6.17;;;1.20;;
72319;SDS011;60269;52.502;16.732;2022-12-29T17:14:39;9.05;;;1.33;;
72319;SDS011;60269;52.502;16.732;2022-12-29T17:18:12;4.68;;;1.00;;
72319;SDS011;60269;52.502;16.732;2022-12-29T17:21:45;5.17;;;1.17;;
72319;SDS011;60269;52.502;16.732;2022-12-29T17:25:18;6.63;;;1.02;;
72319;SDS011;60269;52.502;16.732;2022-12-29T17:28:52;9.43;;;2.17;;
72319;SDS011;60269;52.502;16.732;2022-12-29T17:32:24;9.33;;;2.07;;
72319;SDS011;60269;52.502;16.732;2022-12-29T17:35:56;5.85;;;1.35;;
72319;SDS011;60269;52.502;16.732;2022-12-29T17:39:28;4.78;;;1.15;;
72319;SDS011;60269;52.502;16.732;2022-12-29T17:43:00;5.45;;;0.80;;
72319;SDS011;60269;52.502;16.732;2022-12-29T17:46:33;5.20;;;1.27;;
72319;SDS011;60269;52.502;16.732;2022-12-29T17:50:08;7.43;;;1.65;;
72319;SDS011;60269;52.502;16.732;2022-12-29T17:53:44;9.40;;;1.50;;
72319;SDS011;60269;52.502;16.732;2022-12-29T17:57:17;9.80;;;1.90;;
72319;SDS011;60269;52.502;16.732;2022-12-29T18:00:52;14.00;;;2.33;;
72319;SDS011;60269;52.502;16.732;2022-12-29T18:04:25;9.02;;;1.50;;
72319;SDS011;60269;52.502;16.732;2022-12-29T18:07:57;4.30;;;1.30;;
72319;SDS011;60269;52.502;16.732;2022-12-29T18:11:30;6.97;;;1.57;;
72319;SDS011;60269;52.502;16.732;2022-12-29T18:15:03;5.57;;;1.13;;
72319;SDS011;60269;52.502;16.732;2022-12-29T18:18:38;5.47;;;1.23;;
72319;SDS011;60269;52.502;16.732;2022-12-29T18:22:10;4.93;;;1.10;;
72319;SDS011;60269;52.502;16.732;2022-12-29T18:25:44;5.90;;;1.52;;
72319;SDS011;60269;52.502;16.732;2022-12-29T18:29:19;6.03;;;1.55;;
72319;SDS011;60269;52.502;16.732;2022-12-29T18:32:51;5.60;;;1.45;;
72319;SDS011;60269;52.502;16.732;2022-12-29T18:36:25;8.77;;;1.30;;
72319;SDS011;60269;52.502;16.732;2022-12-29T18:39:57;8.57;;;1.38;;
72319;SDS011;60269;52.502;16.732;2022-12-29T18:43:30;5.60;;;1.20;;
72319;SDS011;60269;52.502;16.732;2022-12-29T18:47:02;4.87;;;1.07;;
72319;SDS011;60269;52.502;16.732;2022-12-29T18:50:34;5.45;;;1.20;;
72319;SDS011;60269;52.502;16.732;2022-12-29T18:54:15;5.05;;;0.82;;
72319;SDS011;60269;52.502;16.732;2022-12-29T18:57:56;8.57;;;1.70;;
72319;SDS011;60269;52.502;16.732;2022-12-29T19:01:28;10.33;;;1.57;;
72319;SDS011;60269;52.502;16.732;2022-12-29T19:05:02;6.00;;;1.40;;
72319;SDS011;60269;52.502;16.732;2022-12-29T19:08:39;5.70;;;1.27;;
72319;SDS011;60269;52.502;16.732;2022-12-29T19:12:12;5.90;;;1.00;;
72319;SDS011;60269;52.502;16.732;2022-12-29T19:15:49;9.80;;;2.42;;
72319;SDS011;60269;52.502;16.732;2022-12-29T19:19:21;5.18;;;1.25;;
72319;SDS011;60269;52.502;16.732;2022-12-29T19:22:54;5.83;;;1.63;;
72319;SDS011;60269;52.502;16.732;2022-12-29T19:26:31;7.73;;;1.70;;
72319;SDS011;60269;52.502;16.732;2022-12-29T19:30:08;7.55;;;2.05;;
72319;SDS011;60269;52.502;16.732;2022-12-29T19:33:42;6.43;;;1.80;;
72319;SDS011;60269;52.502;16.732;2022-12-29T19:37:14;7.43;;;1.70;;
72319;SDS011;60269;52.502;16.732;2022-12-29T19:40:47;6.82;;;1.73;;
72319;SDS011;60269;52.502;16.732;2022-12-29T19:44:21;8.38;;;1.73;;
72319;SDS011;60269;52.502;16.732;2022-12-29T19:47:53;7.17;;;1.50;;
72319;SDS011;60269;52.502;16.732;2022-12-29T19:51:25;9.18;;;2.00;;
72319;SDS011;60269;52.502;16.732;2022-12-29T19:54:58;6.25;;;1.60;;
72319;SDS011;60269;52.502;16.732;2022-12-29T19:58:31;6.30;;;1.58;;
72319;SDS011;60269;52.502;16.732;2022-12-29T20:02:03;6.47;;;1.50;;
72319;SDS011;60269;52.502;16.732;2022-12-29T20:05:36;10.55;;;1.85;;
72319;SDS011;60269;52.502;16.732;2022-12-29T20:09:08;9.88;;;2.33;;
72319;SDS011;60269;52.502;16.732;2022-12-29T20:12:40;8.80;;;1.90;;
72319;SDS011;60269;52.502;16.732;2022-12-29T20:16:13;9.23;;;2.58;;
72319;SDS011;60269;52.502;16.732;2022-12-29T20:19:48;9.85;;;1.92;;
72319;SDS011;60269;52.502;16.732;2022-12-29T20:23:20;8.10;;;2.27;;
72319;SDS011;60269;52.502;16.732;2022-12-29T20:26:52;7.10;;;1.55;;
72319;SDS011;60269;52.502;16.732;2022-12-29T20:30:25;8.48;;;1.80;;
72319;SDS011;60269;52.502;16.732;2022-12-29T20:33:57;8.43;;;1.67;;
72319;SDS011;60269;52.502;16.732;2022-12-29T20:37:29;5.87;;;1.43;;
72319;SDS011;60269;52.502;16.732;2022-12-29T20:41:01;8.13;;;1.98;;
72319;SDS011;60269;52.502;16.732;2022-12-29T20:44:34;8.98;;;2.47;;
72319;SDS011;60269;52.502;16.732;2022-12-29T20:48:06;6.37;;;1.70;;
72319;SDS011;60269;52.502;16.732;2022-12-29T20:51:38;9.40;;;2.10;;
72319;SDS011;60269;52.502;16.732;2022-12-29T20:55:33;8.00;;;2.00;;
72319;SDS011;60269;52.502;16.732;2022-12-29T20:59:05;16.83;;;1.80;;
72319;SDS011;60269;52.502;16.732;2022-12-29T21:02:58;6.50;;;1.85;;
72319;SDS011;60269;52.502;16.732;2022-12-29T21:06:31;8.48;;;2.03;;
72319;SDS011;60269;52.502;16.732;2022-12-29T21:10:04;9.65;;;2.33;;
72319;SDS011;60269;52.502;16.732;2022-12-29T21:13:36;6.07;;;1.53;;
72319;SDS011;60269;52.502;16.732;2022-12-29T21:17:08;7.30;;;1.85;;
72319;SDS011;60269;52.502;16.732;2022-12-29T21:20:40;8.13;;;2.13;;
72319;SDS011;60269;52.502;16.732;2022-12-29T21:24:12;10.70;;;2.90;;
72319;SDS011;60269;52.502;16.732;2022-12-29T21:27:44;7.57;;;2.00;;
72319;SDS011;60269;52.502;16.732;2022-12-29T21:31:34;7.20;;;2.00;;
72319;SDS011;60269;52.502;16.732;2022-12-29T21:35:07;7.00;;;2.13;;
72319;SDS011;60269;52.502;16.732;2022-12-29T21:38:40;9.48;;;2.38;;
72319;SDS011;60269;52.502;16.732;2022-12-29T21:42:12;8.73;;;2.58;;
72319;SDS011;60269;52.502;16.732;2022-12-29T21:45:48;10.88;;;2.45;;
72319;SDS011;60269;52.502;16.732;2022-12-29T21:49:20;11.07;;;2.10;;
72319;SDS011;60269;52.502;16.732;2022-12-29T21:52:54;6.78;;;1.77;;
72319;SDS011;60269;52.502;16.732;2022-12-29T21:56:26;10.18;;;3.03;;
72319;SDS011;60269;52.502;16.732;2022-12-29T21:59:58;7.20;;;1.97;;
72319;SDS011;60269;52.502;16.732;2022-12-29T22:03:49;8.27;;;1.92;;
72319;SDS011;60269;52.502;16.732;2022-12-29T22:07:39;8.52;;;1.90;;
72319;SDS011;60269;52.502;16.732;2022-12-29T22:11:29;8.03;;;2.00;;
72319;SDS011;60269;52.502;16.732;2022-12-29T22:15:20;6.65;;;1.85;;
72319;SDS011;60269;52.502;16.732;2022-12-29T22:18:52;10.85;;;2.67;;
72319;SDS011;60269;52.502;16.732;2022-12-29T22:22:24;6.43;;;1.52;;
72319;SDS011;60269;52.502;16.732;2022-12-29T22:25:56;8.93;;;2.77;;
72319;SDS011;60269;52.502;16.732;2022-12-29T22:29:34;6.85;;;2.33;;
72319;SDS011;60269;52.502;16.732;2022-12-29T22:33:06;10.20;;;2.92;;
72319;SDS011;60269;52.502;16.732;2022-12-29T22:36:38;5.67;;;1.20;;
72319;SDS011;60269;52.502;16.732;2022-12-29T22:40:10;6.97;;;1.65;;
72319;SDS011;60269;52.502;16.732;2022-12-29T22:43:43;6.75;;;2.08;;
72319;SDS011;60269;52.502;16.732;2022-12-29T22:47:15;5.97;;;1.30;;
72319;SDS011;60269;52.502;16.732;2022-12-29T22:50:47;6.80;;;1.75;;
72319;SDS011;60269;52.502;16.732;2022-12-29T22:54:19;8.77;;;1.55;;
72319;SDS011;60269;52.502;16.732;2022-12-29T22:57:52;5.85;;;1.67;;
72319;SDS011;60269;52.502;16.732;2022-12-29T23:01:23;7.20;;;1.40;;
72319;SDS011;60269;52.502;16.732;2022-12-29T23:04:56;5.90;;;1.48;;
72319;SDS011;60269;52.502;16.732;2022-12-29T23:08:37;5.20;;;1.40;;
72319;SDS011;60269;52.502;16.732;2022-12-29T23:12:10;10.37;;;1.90;;
72319;SDS011;60269;52.502;16.732;2022-12-29T23:15:41;7.15;;;1.50;;
72319;SDS011;60269;52.502;16.732;2022-12-29T23:19:14;5.55;;;1.67;;
72319;SDS011;60269;52.502;16.732;2022-12-29T23:22:45;6.03;;;1.30;;
72319;SDS011;60269;52.502;16.732;2022-12-29T23:26:18;8.07;;;1.48;;
72319;SDS011;60269;52.502;16.732;2022-12-29T23:29:52;5.10;;;1.23;;
72319;SDS011;60269;52.502;16.732;2022-12-29T23:33:24;5.82;;;1.30;;
72319;SDS011;60269;52.502;16.732;2022-12-29T23:36:56;5.23;;;1.13;;
72319;SDS011;60269;52.502;16.732;2022-12-29T23:40:28;5.60;;;1.25;;
72319;SDS011;60269;52.502;16.732;2022-12-29T23:44:00;6.68;;;1.58;;
72319;SDS011;60269;52.502;16.732;2022-12-29T23:47:32;6.83;;;1.37;;
72319;SDS011;60269;52.502;16.732;2022-12-29T23:51:04;10.20;;;1.52;;
72319;SDS011;60269;52.502;16.732;2022-12-29T23:54:37;9.63;;;1.50;;
72319;SDS011;60269;52.502;16.732;2022-12-29T23:58:09;5.23;;;1.10;;
